Time,TemperatureF,DewpointF,PressureIn,WindDirection,WindDirectionDegrees,WindSpeedMPH,WindSpeedGustMPH,Humidity,HourlyPrecipIn,Conditions,Clouds,dailyrainin,SoftwareType,DateUTC
2013-08-04 00:00:00,64.7,64.4,29.94,SW,225,0.0,0.0,99,0.00,,---,0.00,VWS V14.01,2013-08-04 04:00:00,
2013-08-04 00:01:00,64.7,64.4,29.94,SW,225,0.0,0.0,99,0.00,,---,0.00,VWS V14.01,2013-08-04 04:01:00,
2013-08-04 00:06:00,64.7,64.4,29.94,SW,225,0.0,0.0,99,0.00,,---,0.00,VWS V14.01,2013-08-04 04:06:00,
2013-08-04 00:11:00,64.6,64.3,29.94,SW,225,0.0,0.0,99,0.00,,---,0.00,VWS V14.01,2013-08-04 04:11:00,
2013-08-04 00:16:00,64.6,64.3,29.94,SW,225,0.0,0.0,99,0.00,,---,0.00,VWS V14.01,2013-08-04 04:16:00,
2013-08-04 00:21:00,64.6,64.3,29.94,SW,225,0.0,0.0,99,0.00,,---,0.00,VWS V14.01,2013-08-04 04:21:00,
2013-08-04 00:27:00,64.6,64.3,29.94,SW,225,0.0,0.0,99,0.00,,---,0.00,VWS V14.01,2013-08-04 04:27:00,
2013-08-04 00:31:00,64.6,64.3,29.94,SW,225,0.0,0.0,99,0.00,,---,0.00,VWS V14.01,2013-08-04 04:31:00,
2013-08-04 00:37:00,64.6,64.3,29.94,SW,225,0.0,0.0,99,0.00,,---,0.00,VWS V14.01,2013-08-04 04:37:00,
2013-08-04 00:42:00,64.6,64.3,29.94,SW,225,0.0,0.0,99,0.00,,---,0.00,VWS V14.01,2013-08-04 04:42:00,
2013-08-04 00:46:00,64.5,64.2,29.94,SW,225,0.0,0.0,99,0.00,,---,0.00,VWS V14.01,2013-08-04 04:46:00,
2013-08-04 00:52:00,64.4,64.1,29.95,SW,225,0.0,0.0,99,0.00,,---,0.00,VWS V14.01,2013-08-04 04:52:00,
2013-08-04 00:57:00,64.4,64.1,29.94,SW,225,0.0,0.0,99,0.00,,---,0.00,VWS V14.01,2013-08-04 04:57:00,
2013-08-04 01:02:00,64.3,64.0,29.95,SW,233,0.0,1.0,99,0.00,,---,0.00,VWS V14.01,2013-08-04 05:02:00,
2013-08-04 01:07:00,64.3,64.0,29.94,SW,233,0.0,1.0,99,0.00,,---,0.00,VWS V14.01,2013-08-04 05:07:00,
2013-08-04 01:12:00,64.3,64.0,29.94,SW,233,0.0,1.0,99,0.00,,---,0.00,VWS V14.01,2013-08-04 05:12:00,
2013-08-04 01:17:00,64.3,64.0,29.94,SW,233,0.0,1.0,99,0.00,,---,0.00,VWS V14.01,2013-08-04 05:17:00,
2013-08-04 01:22:00,64.2,63.9,29.94,SW,233,0.0,1.0,99,0.00,,---,0.00,VWS V14.01,2013-08-04 05:22:00,
2013-08-04 01:27:00,64.2,63.9,29.94,SW,233,0.0,1.0,99,0.00,,---,0.00,VWS V14.01,2013-08-04 05:27:00,
2013-08-04 01:32:00,64.1,63.8,29.94,SW,233,0.0,0.0,99,0.00,,---,0.00,VWS V14.01,2013-08-04 05:32:00,
2013-08-04 01:37:00,64.0,63.7,29.94,SW,233,0.0,0.0,99,0.00,,---,0.00,VWS V14.01,2013-08-04 05:37:00,
2013-08-04 01:42:00,63.9,63.6,29.94,SW,233,0.0,0.0,99,0.00,,---,0.00,VWS V14.01,2013-08-04 05:42:00,
2013-08-04 01:47:00,63.7,63.4,29.94,SW,233,0.0,0.0,99,0.00,,---,0.00,VWS V14.01,2013-08-04 05:47:00,
2013-08-04 01:52:00,63.5,63.2,29.94,SW,235,0.0,1.0,99,0.00,,---,0.00,VWS V14.01,2013-08-04 05:52:00,
2013-08-04 01:57:00,63.3,63.0,29.94,North,350,0.0,1.0,99,0.00,,---,0.00,VWS V14.01,2013-08-04 05:57:00,
2013-08-04 02:02:00,63.1,62.8,29.94,North,350,0.0,0.0,99,0.00,,---,0.00,VWS V14.01,2013-08-04 06:02:00,
2013-08-04 02:07:00,62.9,62.6,29.93,North,350,0.0,0.0,99,0.00,,---,0.00,VWS V14.01,2013-08-04 06:07:00,
2013-08-04 02:12:00,62.7,62.4,29.93,North,350,0.0,0.0,99,0.00,,---,0.00,VWS V14.01,2013-08-04 06:12:00,
2013-08-04 02:17:00,62.6,62.3,29.93,North,349,0.0,0.0,99,0.00,,---,0.00,VWS V14.01,2013-08-04 06:17:00,
2013-08-04 02:22:00,62.5,62.2,29.93,North,350,0.0,0.0,99,0.00,,---,0.00,VWS V14.01,2013-08-04 06:22:00,
2013-08-04 02:27:00,62.5,62.5,29.93,WNW,301,0.0,1.0,100,0.00,,---,0.00,VWS V14.01,2013-08-04 06:27:00,
2013-08-04 02:32:00,62.5,62.5,29.93,WNW,301,0.0,0.0,100,0.00,,---,0.00,VWS V14.01,2013-08-04 06:32:00,
2013-08-04 02:37:00,62.3,62.0,29.93,WNW,301,0.0,0.0,99,0.00,,---,0.00,VWS V14.01,2013-08-04 06:37:00,
2013-08-04 02:42:00,62.2,61.9,29.94,WNW,301,0.0,0.0,99,0.00,,---,0.00,VWS V14.01,2013-08-04 06:42:00,
2013-08-04 02:47:00,62.3,62.3,29.94,West,266,0.0,0.0,100,0.00,,---,0.00,VWS V14.01,2013-08-04 06:47:00,
2013-08-04 02:52:00,62.5,62.5,29.93,NNW,345,0.0,1.0,100,0.00,,---,0.00,VWS V14.01,2013-08-04 06:52:00,
2013-08-04 02:57:00,62.6,62.6,29.94,NNW,344,0.0,1.0,100,0.00,,---,0.00,VWS V14.01,2013-08-04 06:57:00,
2013-08-04 03:02:00,62.4,62.4,29.94,NNW,345,0.0,0.0,100,0.00,,---,0.00,VWS V14.01,2013-08-04 07:02:00,
2013-08-04 03:07:00,62.3,62.3,29.94,NNW,344,0.0,1.0,100,0.00,,---,0.00,VWS V14.01,2013-08-04 07:07:00,
2013-08-04 03:12:00,62.3,62.3,29.94,NNW,345,0.0,1.0,100,0.00,,---,0.00,VWS V14.01,2013-08-04 07:12:00,
2013-08-04 03:17:00,62.3,62.3,29.93,NNW,346,0.0,1.0,100,0.00,,---,0.00,VWS V14.01,2013-08-04 07:17:00,
2013-08-04 03:22:00,62.4,62.4,29.94,NNW,346,0.0,1.0,100,0.00,,---,0.00,VWS V14.01,2013-08-04 07:22:00,
2013-08-04 03:27:00,62.4,62.4,29.93,NNW,333,0.0,1.0,100,0.00,,---,0.00,VWS V14.01,2013-08-04 07:27:00,
2013-08-04 03:32:00,62.5,62.5,29.93,NNW,333,0.0,0.0,100,0.00,,---,0.00,VWS V14.01,2013-08-04 07:32:00,
2013-08-04 03:37:00,62.5,62.5,29.93,West,277,0.0,2.0,100,0.00,,---,0.00,VWS V14.01,2013-08-04 07:37:00,
2013-08-04 03:42:00,62.6,62.6,29.93,WNW,282,0.0,2.0,100,0.00,,---,0.00,VWS V14.01,2013-08-04 07:42:00,
2013-08-04 03:47:00,62.7,62.7,29.93,NW,304,0.0,2.0,100,0.00,,---,0.00,VWS V14.01,2013-08-04 07:47:00,
2013-08-04 03:52:00,62.7,62.7,29.93,NW,304,0.0,2.0,100,0.00,,---,0.00,VWS V14.01,2013-08-04 07:52:00,
2013-08-04 03:57:00,62.7,62.7,29.93,NW,305,0.0,2.0,100,0.00,,---,0.00,VWS V14.01,2013-08-04 07:57:00,
2013-08-04 04:02:00,62.7,62.7,29.93,NNE,23,0.0,2.0,100,0.00,,---,0.00,VWS V14.01,2013-08-04 08:02:00,
2013-08-04 04:07:00,62.5,62.5,29.93,NNW,344,1.0,3.0,100,0.00,,---,0.00,VWS V14.01,2013-08-04 08:07:00,
2013-08-04 04:12:00,62.4,62.4,29.93,North,352,0.0,3.0,100,0.00,,---,0.00,VWS V14.01,2013-08-04 08:12:00,
2013-08-04 04:18:00,62.3,62.3,29.93,NNW,340,0.0,3.0,100,0.00,,---,0.00,VWS V14.01,2013-08-04 08:18:00,
2013-08-04 04:22:00,62.2,62.2,29.93,NNW,340,0.0,3.0,100,0.00,,---,0.00,VWS V14.01,2013-08-04 08:22:00,
2013-08-04 04:28:00,62.2,62.2,29.93,NNE,25,0.0,3.0,100,0.00,,---,0.00,VWS V14.01,2013-08-04 08:28:00,
2013-08-04 04:33:00,62.2,62.2,29.93,North,10,0.0,1.0,100,0.00,,---,0.00,VWS V14.01,2013-08-04 08:33:00,
2013-08-04 04:38:00,62.2,62.2,29.93,North,9,0.0,1.0,100,0.00,,---,0.00,VWS V14.01,2013-08-04 08:38:00,
2013-08-04 04:42:00,62.3,62.3,29.93,NNW,332,1.0,1.0,100,0.00,,---,0.00,VWS V14.01,2013-08-04 08:42:00,
2013-08-04 04:47:00,62.3,62.3,29.93,NNW,333,0.0,1.0,100,0.00,,---,0.00,VWS V14.01,2013-08-04 08:47:00,
2013-08-04 04:53:00,62.3,62.3,29.93,North,350,1.0,2.0,100,0.00,,---,0.00,VWS V14.01,2013-08-04 08:53:00,
2013-08-04 04:58:00,62.1,62.1,29.93,NNW,330,0.0,2.0,100,0.00,,---,0.00,VWS V14.01,2013-08-04 08:58:00,
2013-08-04 05:03:00,62.0,62.0,29.93,West,280,0.0,4.0,100,0.00,,---,0.00,VWS V14.01,2013-08-04 09:03:00,
2013-08-04 05:08:00,61.8,61.8,29.93,WSW,253,0.0,4.0,100,0.00,,---,0.00,VWS V14.01,2013-08-04 09:08:00,
2013-08-04 05:13:00,61.7,61.7,29.93,West,281,0.0,4.0,100,0.00,,---,0.00,VWS V14.01,2013-08-04 09:13:00,
2013-08-04 05:18:00,61.5,61.5,29.93,West,279,0.0,4.0,100,0.00,,---,0.00,VWS V14.01,2013-08-04 09:18:00,
2013-08-04 05:23:00,61.3,61.3,29.93,NNW,344,0.0,4.0,100,0.00,,---,0.00,VWS V14.01,2013-08-04 09:23:00,
2013-08-04 05:28:00,61.1,61.1,29.93,NNW,342,0.0,4.0,100,0.00,,---,0.00,VWS V14.01,2013-08-04 09:28:00,
2013-08-04 05:33:00,60.9,60.9,29.94,North,352,0.0,1.0,100,0.00,,---,0.00,VWS V14.01,2013-08-04 09:33:00,
2013-08-04 05:38:00,60.7,60.7,29.94,North,356,1.0,3.0,100,0.00,,---,0.00,VWS V14.01,2013-08-04 09:38:00,
2013-08-04 05:43:00,60.8,60.8,29.94,NNE,26,3.0,3.0,100,0.00,,---,0.00,VWS V14.01,2013-08-04 09:43:00,
2013-08-04 05:48:00,60.8,60.8,29.94,WNW,286,1.0,3.0,100,0.00,,---,0.00,VWS V14.01,2013-08-04 09:48:00,
2013-08-04 05:53:00,60.8,60.8,29.94,NE,53,1.0,3.0,100,0.00,,---,0.00,VWS V14.01,2013-08-04 09:53:00,
2013-08-04 05:58:00,60.8,60.8,29.95,NNW,338,0.0,3.0,100,0.00,,---,0.00,VWS V14.01,2013-08-04 09:58:00,
2013-08-04 06:03:00,60.8,60.8,29.94,NE,44,0.0,2.0,100,0.00,,---,0.00,VWS V14.01,2013-08-04 10:03:00,
2013-08-04 06:08:00,60.8,60.8,29.95,North,9,0.0,2.0,100,0.00,,---,0.00,VWS V14.01,2013-08-04 10:08:00,
2013-08-04 06:13:00,60.6,60.6,29.95,North,358,2.0,3.0,100,0.00,,---,0.00,VWS V14.01,2013-08-04 10:13:00,
2013-08-04 06:18:00,60.5,60.5,29.95,WNW,301,0.0,3.0,100,0.00,,---,0.00,VWS V14.01,2013-08-04 10:18:00,
2013-08-04 06:23:00,60.5,60.5,29.96,WSW,243,0.0,3.0,100,0.00,,---,0.00,VWS V14.01,2013-08-04 10:23:00,
2013-08-04 06:28:00,60.4,60.4,29.96,NNW,334,1.0,3.0,100,0.00,,---,0.00,VWS V14.01,2013-08-04 10:28:00,
2013-08-04 06:33:00,60.3,60.3,29.96,North,349,2.0,3.0,100,0.00,,---,0.00,VWS V14.01,2013-08-04 10:33:00,
2013-08-04 06:38:00,60.3,60.3,29.96,NNW,343,2.0,3.0,100,0.00,,---,0.00,VWS V14.01,2013-08-04 10:38:00,
2013-08-04 06:43:00,60.3,60.3,29.96,NW,318,0.0,3.0,100,0.00,,---,0.00,VWS V14.01,2013-08-04 10:43:00,
2013-08-04 06:48:00,60.3,60.3,29.96,NNW,338,0.0,3.0,100,0.00,,---,0.00,VWS V14.01,2013-08-04 10:48:00,
2013-08-04 06:53:00,60.5,60.5,29.96,WNW,297,0.0,3.0,100,0.00,,---,0.00,VWS V14.01,2013-08-04 10:53:00,
2013-08-04 06:58:00,60.5,60.5,29.96,North,356,0.0,3.0,100,0.00,,---,0.00,VWS V14.01,2013-08-04 10:58:00,
2013-08-04 07:03:00,60.6,60.6,29.97,NNW,332,1.0,3.0,100,0.00,,---,0.00,VWS V14.01,2013-08-04 11:03:00,
2013-08-04 07:08:00,60.7,60.7,29.97,North,11,0.0,3.0,100,0.00,,---,0.00,VWS V14.01,2013-08-04 11:08:00,
2013-08-04 07:13:00,60.7,60.7,29.97,NNW,338,0.0,5.0,100,0.00,,---,0.00,VWS V14.01,2013-08-04 11:13:00,
2013-08-04 07:18:00,60.7,60.7,29.97,NNW,333,0.0,5.0,100,0.00,,---,0.00,VWS V14.01,2013-08-04 11:18:00,
2013-08-04 07:23:00,60.8,60.8,29.97,NW,305,0.0,5.0,100,0.00,,---,0.00,VWS V14.01,2013-08-04 11:23:00,
2013-08-04 07:28:00,60.9,60.9,29.97,NNW,330,2.0,5.0,100,0.00,,---,0.00,VWS V14.01,2013-08-04 11:28:00,
2013-08-04 07:33:00,60.8,60.8,29.97,North,6,0.0,5.0,100,0.00,,---,0.00,VWS V14.01,2013-08-04 11:33:00,
2013-08-04 07:38:00,60.9,60.9,29.98,NNW,340,0.0,5.0,100,0.00,,---,0.00,VWS V14.01,2013-08-04 11:38:00,
2013-08-04 07:43:00,60.9,60.9,29.97,North,354,2.0,5.0,100,0.00,,---,0.00,VWS V14.01,2013-08-04 11:43:00,
2013-08-04 07:48:00,61.1,61.1,29.98,North,354,0.0,5.0,100,0.00,,---,0.00,VWS V14.01,2013-08-04 11:48:00,
2013-08-04 07:53:00,61.4,61.4,29.98,NNW,335,0.0,5.0,100,0.00,,---,0.00,VWS V14.01,2013-08-04 11:53:00,
2013-08-04 07:58:00,61.5,61.5,29.97,NW,326,0.0,5.0,100,0.00,,---,0.00,VWS V14.01,2013-08-04 11:58:00,
2013-08-04 08:03:00,61.5,61.5,29.97,NNW,328,0.0,2.0,100,0.00,,---,0.00,VWS V14.01,2013-08-04 12:03:00,
2013-08-04 08:08:00,61.7,61.7,29.97,West,281,1.0,2.0,100,0.00,,---,0.00,VWS V14.01,2013-08-04 12:08:00,
2013-08-04 08:13:00,62.1,61.8,29.97,WSW,255,0.0,2.0,99,0.00,,---,0.00,VWS V14.01,2013-08-04 12:13:00,
2013-08-04 08:18:00,62.5,62.2,29.98,NNW,340,1.0,4.0,99,0.00,,---,0.00,VWS V14.01,2013-08-04 12:18:00,
2013-08-04 08:23:00,62.7,62.1,29.98,NNE,15,0.0,4.0,98,0.00,,---,0.00,VWS V14.01,2013-08-04 12:23:00,
2013-08-04 08:28:00,62.8,61.9,29.98,WNW,291,3.0,4.0,97,0.00,,---,0.00,VWS V14.01,2013-08-04 12:28:00,
2013-08-04 08:33:00,62.6,61.7,29.98,NNE,16,0.0,1.0,97,0.00,,---,0.00,VWS V14.01,2013-08-04 12:33:00,
2013-08-04 08:38:00,62.9,62.0,29.98,NNW,346,2.0,4.0,97,0.00,,---,0.00,VWS V14.01,2013-08-04 12:38:00,
2013-08-04 08:43:00,62.7,61.2,29.99,WNW,297,0.0,4.0,95,0.00,,---,0.00,VWS V14.01,2013-08-04 12:43:00,
2013-08-04 08:48:00,63.2,62.0,29.99,NE,56,3.0,4.0,96,0.00,,---,0.00,VWS V14.01,2013-08-04 12:48:00,
2013-08-04 08:53:00,63.3,61.8,29.99,SE,136,1.0,6.0,95,0.00,,---,0.00,VWS V14.01,2013-08-04 12:53:00,
2013-08-04 08:59:00,63.1,61.0,29.99,NW,314,3.0,6.0,93,0.00,,---,0.00,VWS V14.01,2013-08-04 12:59:00,
2013-08-04 09:04:00,62.9,60.8,29.99,North,352,3.0,3.0,93,0.00,,---,0.00,VWS V14.01,2013-08-04 13:04:00,
2013-08-04 09:09:00,63.0,61.2,29.99,North,354,0.0,4.0,94,0.00,,---,0.00,VWS V14.01,2013-08-04 13:09:00,
2013-08-04 09:14:00,64.1,62.3,29.99,West,269,2.0,4.0,94,0.00,,---,0.00,VWS V14.01,2013-08-04 13:14:00,
2013-08-04 09:18:00,64.5,62.1,29.99,North,356,2.0,4.0,92,0.00,,---,0.00,VWS V14.01,2013-08-04 13:18:00,
2013-08-04 09:23:00,64.8,61.8,29.99,WNW,292,1.0,4.0,90,0.00,,---,0.00,VWS V14.01,2013-08-04 13:23:00,
2013-08-04 09:29:00,65.6,62.9,29.99,SW,236,0.0,5.0,91,0.00,,---,0.00,VWS V14.01,2013-08-04 13:29:00,
2013-08-04 09:34:00,66.6,62.6,29.99,WNW,283,1.0,7.0,87,0.00,,---,0.00,VWS V14.01,2013-08-04 13:34:00,
2013-08-04 09:38:00,67.4,63.1,29.99,SSW,205,2.0,7.0,86,0.00,,---,0.00,VWS V14.01,2013-08-04 13:38:00,
2013-08-04 09:44:00,67.7,62.4,29.99,NNE,24,0.0,7.0,83,0.00,,---,0.00,VWS V14.01,2013-08-04 13:44:00,
2013-08-04 09:49:00,67.4,61.7,29.99,WNW,283,4.0,7.0,82,0.00,,---,0.00,VWS V14.01,2013-08-04 13:49:00,
2013-08-04 09:53:00,66.2,61.2,29.99,WSW,240,2.0,7.0,84,0.00,,---,0.00,VWS V14.01,2013-08-04 13:53:00,
2013-08-04 09:59:00,66.3,61.3,29.99,SSE,163,2.0,7.0,84,0.00,,---,0.00,VWS V14.01,2013-08-04 13:59:00,
2013-08-04 10:04:00,66.8,61.8,29.99,WNW,302,4.0,6.0,84,0.00,,---,0.00,VWS V14.01,2013-08-04 14:04:00,
2013-08-04 10:09:00,67.5,61.8,29.99,NNW,339,1.0,6.0,82,0.00,,---,0.00,VWS V14.01,2013-08-04 14:09:00,
2013-08-04 10:14:00,67.6,60.9,29.99,WSW,242,5.0,6.0,79,0.00,,---,0.00,VWS V14.01,2013-08-04 14:14:00,
2013-08-04 10:19:00,67.8,61.4,29.99,SW,219,2.0,6.0,80,0.00,,---,0.00,VWS V14.01,2013-08-04 14:19:00,
2013-08-04 10:24:00,68.4,62.3,29.99,WSW,250,3.0,6.0,81,0.00,,---,0.00,VWS V14.01,2013-08-04 14:24:00,
2013-08-04 10:29:00,68.3,61.2,29.99,NNW,342,1.0,6.0,78,0.00,,---,0.00,VWS V14.01,2013-08-04 14:29:00,
2013-08-04 10:34:00,68.4,60.9,29.99,NW,305,4.0,9.0,77,0.00,,---,0.00,VWS V14.01,2013-08-04 14:34:00,
2013-08-04 10:39:00,68.8,61.3,29.99,ENE,60,2.0,9.0,77,0.00,,---,0.00,VWS V14.01,2013-08-04 14:39:00,
2013-08-04 10:44:00,69.3,61.4,29.99,WNW,294,4.0,9.0,76,0.00,,---,0.00,VWS V14.01,2013-08-04 14:44:00,
2013-08-04 10:49:00,68.3,60.5,30.00,SW,226,3.0,9.0,76,0.00,,---,0.00,VWS V14.01,2013-08-04 14:49:00,
2013-08-04 10:54:00,67.8,60.7,30.00,WNW,302,5.0,9.0,78,0.00,,---,0.00,VWS V14.01,2013-08-04 14:54:00,
2013-08-04 10:59:00,68.1,61.3,29.99,NE,41,3.0,9.0,79,0.00,,---,0.00,VWS V14.01,2013-08-04 14:59:00,
2013-08-04 11:04:00,68.6,60.4,30.00,West,260,1.0,8.0,75,0.00,,---,0.00,VWS V14.01,2013-08-04 15:04:00,
2013-08-04 11:09:00,68.8,60.9,30.00,West,259,1.0,8.0,76,0.00,,---,0.00,VWS V14.01,2013-08-04 15:09:00,
2013-08-04 11:14:00,68.5,60.6,30.00,ESE,107,0.0,8.0,76,0.00,,---,0.00,VWS V14.01,2013-08-04 15:14:00,
2013-08-04 11:19:00,68.3,59.3,30.00,ENE,63,2.0,8.0,73,0.00,,---,0.00,VWS V14.01,2013-08-04 15:19:00,
2013-08-04 11:24:00,68.7,60.8,29.99,NNW,328,1.0,8.0,76,0.00,,---,0.00,VWS V14.01,2013-08-04 15:24:00,
2013-08-04 11:29:00,69.3,60.3,29.99,WNW,284,2.0,8.0,73,0.00,,---,0.00,VWS V14.01,2013-08-04 15:29:00,
2013-08-04 11:34:00,69.3,61.0,29.99,WNW,287,3.0,6.0,75,0.00,,---,0.00,VWS V14.01,2013-08-04 15:34:00,
2013-08-04 11:39:00,69.6,61.0,29.99,SE,145,2.0,6.0,74,0.00,,---,0.00,VWS V14.01,2013-08-04 15:39:00,
2013-08-04 11:44:00,69.9,60.1,29.99,WSW,256,6.0,7.0,71,0.00,,---,0.00,VWS V14.01,2013-08-04 15:44:00,
2013-08-04 11:49:00,69.6,59.8,29.99,NNW,334,1.0,7.0,71,0.00,,---,0.00,VWS V14.01,2013-08-04 15:49:00,
2013-08-04 11:54:00,70.0,59.4,29.99,West,262,1.0,8.0,69,0.00,,---,0.00,VWS V14.01,2013-08-04 15:54:00,
2013-08-04 11:59:00,70.0,60.2,30.00,WNW,291,1.0,9.0,71,0.00,,---,0.00,VWS V14.01,2013-08-04 15:59:00,
2013-08-04 12:04:00,69.8,60.8,30.00,North,356,3.0,4.0,73,0.00,,---,0.00,VWS V14.01,2013-08-04 16:04:00,
2013-08-04 12:09:00,69.0,60.8,30.00,North,359,2.0,5.0,75,0.00,,---,0.00,VWS V14.01,2013-08-04 16:09:00,
2013-08-04 12:14:00,68.6,61.5,30.00,NW,313,2.0,5.0,78,0.00,,---,0.00,VWS V14.01,2013-08-04 16:14:00,
2013-08-04 12:19:00,69.0,62.2,29.99,NNW,346,3.0,7.0,79,0.00,,---,0.00,VWS V14.01,2013-08-04 16:19:00,
2013-08-04 12:24:00,70.4,62.8,29.99,NW,320,5.0,7.0,77,0.00,,---,0.00,VWS V14.01,2013-08-04 16:24:00,
2013-08-04 12:29:00,70.1,61.0,29.99,North,360,9.0,9.0,73,0.00,,---,0.00,VWS V14.01,2013-08-04 16:29:00,
2013-08-04 12:34:00,69.7,60.7,29.99,WNW,295,4.0,9.0,73,0.00,,---,0.00,VWS V14.01,2013-08-04 16:34:00,
2013-08-04 12:39:00,69.2,60.6,29.99,WSW,238,1.0,9.0,74,0.00,,---,0.00,VWS V14.01,2013-08-04 16:39:00,
2013-08-04 12:44:00,69.3,60.7,30.00,WNW,297,1.0,9.0,74,0.00,,---,0.00,VWS V14.01,2013-08-04 16:44:00,
2013-08-04 12:49:00,69.6,61.3,29.99,NNW,330,1.0,9.0,75,0.00,,---,0.00,VWS V14.01,2013-08-04 16:49:00,
2013-08-04 12:54:00,70.5,61.4,29.99,NNW,345,1.0,9.0,73,0.00,,---,0.00,VWS V14.01,2013-08-04 16:54:00,
2013-08-04 12:59:00,70.7,61.6,29.99,WSW,256,3.0,4.0,73,0.00,,---,0.00,VWS V14.01,2013-08-04 16:59:00,
2013-08-04 13:04:00,70.2,61.2,29.99,North,349,4.0,6.0,73,0.00,,---,0.00,VWS V14.01,2013-08-04 17:04:00,
2013-08-04 13:09:00,69.6,60.2,29.99,NW,322,3.0,8.0,72,0.00,,---,0.00,VWS V14.01,2013-08-04 17:09:00,
2013-08-04 13:14:00,69.2,61.0,29.98,NE,44,4.0,8.0,75,0.00,,---,0.00,VWS V14.01,2013-08-04 17:14:00,
2013-08-04 13:19:00,68.7,59.7,29.98,NNW,329,1.0,8.0,73,0.00,,---,0.00,VWS V14.01,2013-08-04 17:19:00,
2013-08-04 13:24:00,69.1,61.6,29.98,NNW,346,3.0,8.0,77,0.00,,---,0.00,VWS V14.01,2013-08-04 17:24:00,
2013-08-04 13:29:00,69.3,59.1,29.99,North,356,2.0,3.0,70,0.00,,---,0.00,VWS V14.01,2013-08-04 17:29:00,
2013-08-04 13:34:00,69.1,60.1,29.98,NW,305,2.0,6.0,73,0.00,,---,0.00,VWS V14.01,2013-08-04 17:34:00,
2013-08-04 13:39:00,69.6,61.7,29.98,WNW,287,2.0,6.0,76,0.00,,---,0.00,VWS V14.01,2013-08-04 17:39:00,
2013-08-04 13:44:00,69.9,60.1,29.98,NNE,30,7.0,8.0,71,0.00,,---,0.00,VWS V14.01,2013-08-04 17:44:00,
2013-08-04 13:49:00,69.2,60.6,29.98,North,356,2.0,8.0,74,0.00,,---,0.00,VWS V14.01,2013-08-04 17:49:00,
2013-08-04 13:54:00,68.5,59.1,29.98,West,280,3.0,8.0,72,0.00,,---,0.00,VWS V14.01,2013-08-04 17:54:00,
2013-08-04 13:59:00,68.1,59.1,29.98,WSW,250,0.0,1.0,73,0.00,,---,0.00,VWS V14.01,2013-08-04 17:59:00,
2013-08-04 14:04:00,67.7,59.1,29.99,WNW,301,0.0,4.0,74,0.00,,---,0.00,VWS V14.01,2013-08-04 18:04:00,
2013-08-04 14:10:00,67.4,58.5,29.99,West,261,0.0,4.0,73,0.00,,---,0.00,VWS V14.01,2013-08-04 18:10:00,
2013-08-04 14:14:00,67.2,59.0,29.99,SW,219,1.0,4.0,75,0.00,,---,0.00,VWS V14.01,2013-08-04 18:14:00,
2013-08-04 14:20:00,67.3,59.1,29.98,WSW,257,1.0,6.0,75,0.00,,---,0.00,VWS V14.01,2013-08-04 18:20:00,
2013-08-04 14:25:00,68.2,60.3,29.99,West,278,3.0,6.0,76,0.00,,---,0.00,VWS V14.01,2013-08-04 18:25:00,
2013-08-04 14:30:00,68.4,59.8,29.99,West,274,3.0,3.0,74,0.00,,---,0.00,VWS V14.01,2013-08-04 18:30:00,
2013-08-04 14:34:00,68.5,59.9,29.98,SW,225,3.0,4.0,74,0.00,,---,0.00,VWS V14.01,2013-08-04 18:34:00,
2013-08-04 14:40:00,68.6,60.4,29.99,NW,325,1.0,4.0,75,0.00,,---,0.00,VWS V14.01,2013-08-04 18:40:00,
2013-08-04 14:45:00,68.4,60.2,29.99,WSW,246,0.0,6.0,75,0.00,,---,0.00,VWS V14.01,2013-08-04 18:45:00,
2013-08-04 14:49:00,68.4,60.5,29.99,WNW,283,6.0,6.0,76,0.00,,---,0.00,VWS V14.01,2013-08-04 18:49:00,
2013-08-04 14:55:00,67.7,59.9,29.99,NE,44,4.0,7.0,76,0.00,,---,0.00,VWS V14.01,2013-08-04 18:55:00,
2013-08-04 15:00:00,67.2,59.8,29.99,North,359,2.0,3.0,77,0.00,,---,0.00,VWS V14.01,2013-08-04 19:00:00,
2013-08-04 15:04:00,67.2,59.8,29.99,NW,305,1.0,3.0,77,0.00,,---,0.00,VWS V14.01,2013-08-04 19:04:00,
2013-08-04 15:09:00,67.1,59.7,29.99,WNW,291,2.0,3.0,77,0.00,,---,0.00,VWS V14.01,2013-08-04 19:09:00,
2013-08-04 15:15:00,66.9,60.2,29.99,NNE,23,0.0,4.0,79,0.00,,---,0.00,VWS V14.01,2013-08-04 19:15:00,
2013-08-04 15:20:00,67.4,61.0,29.99,WNW,298,0.0,4.0,80,0.00,,---,0.00,VWS V14.01,2013-08-04 19:20:00,
2013-08-04 15:25:00,68.2,61.5,29.99,West,274,1.0,4.0,79,0.00,,---,0.00,VWS V14.01,2013-08-04 19:25:00,
2013-08-04 15:29:00,68.8,60.6,29.99,North,350,1.0,3.0,75,0.00,,---,0.00,VWS V14.01,2013-08-04 19:29:00,
2013-08-04 15:35:00,68.8,59.8,29.99,NNE,15,2.0,4.0,73,0.00,,---,0.00,VWS V14.01,2013-08-04 19:35:00,
2013-08-04 15:40:00,68.2,59.6,29.99,NW,319,1.0,5.0,74,0.00,,---,0.00,VWS V14.01,2013-08-04 19:40:00,
2013-08-04 15:45:00,67.9,60.4,29.99,WNW,288,1.0,5.0,77,0.00,,---,0.00,VWS V14.01,2013-08-04 19:45:00,
2013-08-04 15:49:00,67.8,60.0,29.99,SW,229,1.0,6.0,76,0.00,,---,0.00,VWS V14.01,2013-08-04 19:49:00,
2013-08-04 15:54:00,67.7,59.9,29.99,NW,322,2.0,7.0,76,0.00,,---,0.00,VWS V14.01,2013-08-04 19:54:00,
2013-08-04 16:00:00,67.7,59.9,29.99,NNW,330,3.0,4.0,76,0.00,,---,0.00,VWS V14.01,2013-08-04 20:00:00,
2013-08-04 16:05:00,67.6,59.8,29.99,North,11,1.0,5.0,76,0.00,,---,0.00,VWS V14.01,2013-08-04 20:05:00,
2013-08-04 16:10:00,67.5,59.7,29.99,North,352,5.0,5.0,76,0.00,,---,0.00,VWS V14.01,2013-08-04 20:10:00,
2013-08-04 16:15:00,67.3,59.1,29.99,NNE,18,3.0,7.0,75,0.00,,---,0.00,VWS V14.01,2013-08-04 20:15:00,
2013-08-04 16:20:00,67.6,59.8,29.99,West,280,1.0,7.0,76,0.00,,---,0.00,VWS V14.01,2013-08-04 20:20:00,
2013-08-04 16:25:00,67.9,59.7,29.99,NNW,330,1.0,7.0,75,0.00,,---,0.00,VWS V14.01,2013-08-04 20:25:00,
2013-08-04 16:30:00,68.4,59.8,29.99,West,280,2.0,4.0,74,0.00,,---,0.00,VWS V14.01,2013-08-04 20:30:00,
2013-08-04 16:34:00,68.9,60.7,29.99,North,356,4.0,6.0,75,0.00,,---,0.00,VWS V14.01,2013-08-04 20:34:00,
2013-08-04 16:40:00,69.1,58.9,29.99,North,360,5.0,8.0,70,0.00,,---,0.00,VWS V14.01,2013-08-04 20:40:00,
2013-08-04 16:45:00,69.3,59.9,29.99,NE,44,2.0,10.0,72,0.00,,---,0.00,VWS V14.01,2013-08-04 20:45:00,
2013-08-04 16:50:00,69.7,59.1,29.99,WNW,291,1.0,10.0,69,0.00,,---,0.00,VWS V14.01,2013-08-04 20:50:00,
2013-08-04 16:55:00,69.7,58.7,29.99,NW,304,1.0,10.0,68,0.00,,---,0.00,VWS V14.01,2013-08-04 20:55:00,
2013-08-04 17:00:00,69.5,59.3,29.99,West,281,1.0,3.0,70,0.00,,---,0.00,VWS V14.01,2013-08-04 21:00:00,
2013-08-04 17:05:00,69.8,59.6,29.99,NW,319,0.0,6.0,70,0.00,,---,0.00,VWS V14.01,2013-08-04 21:05:00,
2013-08-04 17:10:00,70.3,60.1,29.99,WNW,301,5.0,6.0,70,0.00,,---,0.00,VWS V14.01,2013-08-04 21:10:00,
2013-08-04 17:15:00,69.9,59.7,29.99,SW,218,1.0,6.0,70,0.00,,---,0.00,VWS V14.01,2013-08-04 21:15:00,
2013-08-04 17:20:00,70.2,59.2,29.99,SW,223,1.0,6.0,68,0.00,,---,0.00,VWS V14.01,2013-08-04 21:20:00,
2013-08-04 17:25:00,70.4,59.8,29.99,WNW,294,4.0,6.0,69,0.00,,---,0.00,VWS V14.01,2013-08-04 21:25:00,
2013-08-04 17:30:00,69.9,59.7,29.99,WNW,294,4.0,5.0,70,0.00,,---,0.00,VWS V14.01,2013-08-04 21:30:00,
2013-08-04 17:35:00,69.2,59.0,29.99,North,356,3.0,5.0,70,0.00,,---,0.00,VWS V14.01,2013-08-04 21:35:00,
2013-08-04 17:40:00,69.0,59.2,29.99,NNE,18,1.0,5.0,71,0.00,,---,0.00,VWS V14.01,2013-08-04 21:40:00,
2013-08-04 17:45:00,69.3,60.3,29.99,NW,309,3.0,5.0,73,0.00,,---,0.00,VWS V14.01,2013-08-04 21:45:00,
2013-08-04 17:49:00,69.7,59.5,29.99,NW,314,0.0,5.0,70,0.00,,---,0.00,VWS V14.01,2013-08-04 21:49:00,
2013-08-04 17:54:00,69.3,59.5,29.99,North,356,2.0,7.0,71,0.00,,---,0.00,VWS V14.01,2013-08-04 21:54:00,
2013-08-04 17:59:00,68.5,60.3,29.99,WNW,288,1.0,7.0,75,0.00,,---,0.00,VWS V14.01,2013-08-04 21:59:00,
2013-08-04 18:04:00,67.9,60.1,29.99,North,6,4.0,6.0,76,0.00,,---,0.00,VWS V14.01,2013-08-04 22:04:00,
2013-08-04 18:09:00,67.4,59.6,29.99,North,356,4.0,6.0,76,0.00,,---,0.00,VWS V14.01,2013-08-04 22:09:00,
2013-08-04 18:14:00,67.4,60.3,29.99,WNW,287,1.0,6.0,78,0.00,,---,0.00,VWS V14.01,2013-08-04 22:14:00,
2013-08-04 18:19:00,68.1,60.6,29.99,North,356,2.0,6.0,77,0.00,,---,0.00,VWS V14.01,2013-08-04 22:19:00,
2013-08-04 18:24:00,68.5,60.6,29.99,NNW,332,3.0,6.0,76,0.00,,---,0.00,VWS V14.01,2013-08-04 22:24:00,
2013-08-04 18:29:00,68.5,59.5,29.99,West,281,1.0,8.0,73,0.00,,---,0.00,VWS V14.01,2013-08-04 22:29:00,
2013-08-04 18:34:00,68.0,60.2,29.99,North,352,1.0,5.0,76,0.00,,---,0.00,VWS V14.01,2013-08-04 22:34:00,
2013-08-04 18:39:00,67.6,60.5,29.99,North,359,1.0,5.0,78,0.00,,---,0.00,VWS V14.01,2013-08-04 22:39:00,
2013-08-04 18:44:00,67.3,60.2,29.99,NNE,33,0.0,5.0,78,0.00,,---,0.00,VWS V14.01,2013-08-04 22:44:00,
2013-08-04 18:49:00,67.4,60.3,29.99,NW,305,1.0,5.0,78,0.00,,---,0.00,VWS V14.01,2013-08-04 22:49:00,
2013-08-04 18:54:00,67.4,60.7,29.99,NNW,338,1.0,5.0,79,0.00,,---,0.00,VWS V14.01,2013-08-04 22:54:00,
2013-08-04 18:59:00,67.4,60.7,29.99,WNW,290,0.0,1.0,79,0.00,,---,0.00,VWS V14.01,2013-08-04 22:59:00,
2013-08-04 19:04:00,67.2,60.1,29.99,NNE,19,0.0,2.0,78,0.00,,---,0.00,VWS V14.01,2013-08-04 23:04:00,
2013-08-04 19:09:00,66.7,60.0,29.99,NNW,346,1.0,2.0,79,0.00,,---,0.00,VWS V14.01,2013-08-04 23:09:00,
2013-08-04 19:15:00,66.1,60.1,29.99,WNW,290,0.0,2.0,81,0.00,,---,0.00,VWS V14.01,2013-08-04 23:15:00,
2013-08-04 19:20:00,65.6,60.0,30.00,WNW,290,0.0,2.0,82,0.00,,---,0.00,VWS V14.01,2013-08-04 23:20:00,
2013-08-04 19:25:00,65.3,60.0,30.00,NW,321,0.0,2.0,83,0.00,,---,0.00,VWS V14.01,2013-08-04 23:25:00,
2013-08-04 19:30:00,65.1,59.8,30.00,North,349,0.0,1.0,83,0.00,,---,0.00,VWS V14.01,2013-08-04 23:30:00,
2013-08-04 19:35:00,64.9,60.0,30.00,NW,324,6.0,6.0,84,0.00,,---,0.00,VWS V14.01,2013-08-04 23:35:00,
2013-08-04 19:40:00,64.7,59.4,29.99,North,356,4.0,6.0,83,0.00,,---,0.00,VWS V14.01,2013-08-04 23:40:00,
2013-08-04 19:44:00,64.5,59.2,30.00,WNW,283,1.0,6.0,83,0.00,,---,0.00,VWS V14.01,2013-08-04 23:44:00,
2013-08-04 19:50:00,64.3,59.0,30.00,NNW,333,0.0,6.0,83,0.00,,---,0.00,VWS V14.01,2013-08-04 23:50:00,
2013-08-04 19:55:00,64.1,58.8,30.00,NNW,344,0.0,6.0,83,0.00,,---,0.00,VWS V14.01,2013-08-04 23:55:00,
2013-08-04 20:00:00,63.9,58.6,30.00,NNW,329,0.0,0.0,83,0.00,,---,0.00,VWS V14.01,2013-08-05 00:00:00,
2013-08-04 20:04:00,63.6,58.7,30.00,North,356,0.0,2.0,84,0.00,,---,0.00,VWS V14.01,2013-08-05 00:04:00,
2013-08-04 20:09:00,63.3,58.4,30.00,North,356,0.0,2.0,84,0.00,,---,0.00,VWS V14.01,2013-08-05 00:09:00,
2013-08-04 20:14:00,62.9,58.3,30.00,North,1,3.0,3.0,85,0.00,,---,0.00,VWS V14.01,2013-08-05 00:14:00,
2013-08-04 20:20:00,62.5,58.3,30.00,NNW,330,0.0,3.0,86,0.00,,---,0.00,VWS V14.01,2013-08-05 00:20:00,
2013-08-04 20:25:00,62.2,58.3,30.00,NNW,330,0.0,3.0,87,0.00,,---,0.00,VWS V14.01,2013-08-05 00:25:00,
2013-08-04 20:29:00,61.7,58.1,30.00,NNW,330,0.0,0.0,88,0.00,,---,0.00,VWS V14.01,2013-08-05 00:29:00,
2013-08-04 20:35:00,61.3,58.0,30.00,NNW,330,0.0,0.0,89,0.00,,---,0.00,VWS V14.01,2013-08-05 00:35:00,
2013-08-04 20:40:00,60.8,57.8,30.01,NNW,329,0.0,2.0,90,0.00,,---,0.00,VWS V14.01,2013-08-05 00:40:00,
2013-08-04 20:45:00,60.7,57.8,30.01,NNE,27,1.0,2.0,90,0.00,,---,0.00,VWS V14.01,2013-08-05 00:45:00,
2013-08-04 20:50:00,60.5,57.6,30.01,North,352,0.0,2.0,90,0.00,,---,0.00,VWS V14.01,2013-08-05 00:50:00,
2013-08-04 20:55:00,60.2,57.6,30.01,North,352,0.0,2.0,91,0.00,,---,0.00,VWS V14.01,2013-08-05 00:55:00,
2013-08-04 21:00:00,59.8,57.2,30.01,North,352,0.0,0.0,91,0.00,,---,0.00,VWS V14.01,2013-08-05 01:00:00,
2013-08-04 21:05:00,59.4,56.8,30.01,North,352,0.0,0.0,91,0.00,,---,0.00,VWS V14.01,2013-08-05 01:05:00,
2013-08-04 21:10:00,59.0,56.7,30.01,North,352,0.0,0.0,92,0.00,,---,0.00,VWS V14.01,2013-08-05 01:10:00,
2013-08-04 21:15:00,58.7,56.7,30.02,North,352,0.0,0.0,93,0.00,,---,0.00,VWS V14.01,2013-08-05 01:15:00,
2013-08-04 21:20:00,58.4,56.4,30.01,North,352,0.0,0.0,93,0.00,,---,0.00,VWS V14.01,2013-08-05 01:20:00,
2013-08-04 21:25:00,58.1,56.4,30.02,North,352,0.0,0.0,94,0.00,,---,0.00,VWS V14.01,2013-08-05 01:25:00,
2013-08-04 21:30:00,57.9,56.2,30.02,North,352,0.0,0.0,94,0.00,,---,0.00,VWS V14.01,2013-08-05 01:30:00,
2013-08-04 21:35:00,57.8,56.4,30.02,North,352,0.0,0.0,95,0.00,,---,0.00,VWS V14.01,2013-08-05 01:35:00,
2013-08-04 21:40:00,57.6,56.2,30.02,North,352,0.0,0.0,95,0.00,,---,0.00,VWS V14.01,2013-08-05 01:40:00,
2013-08-04 21:45:00,57.4,56.0,30.02,North,353,0.0,0.0,95,0.00,,---,0.00,VWS V14.01,2013-08-05 01:45:00,
2013-08-04 21:50:00,57.2,56.1,30.02,North,352,0.0,0.0,96,0.00,,---,0.00,VWS V14.01,2013-08-05 01:50:00,
2013-08-04 21:55:00,57.3,56.2,30.03,North,353,0.0,0.0,96,0.00,,---,0.00,VWS V14.01,2013-08-05 01:55:00,
2013-08-04 22:00:00,57.3,56.5,30.03,North,352,0.0,0.0,97,0.00,,---,0.00,VWS V14.01,2013-08-05 02:00:00,
2013-08-04 22:05:00,57.2,56.1,30.03,North,352,0.0,0.0,96,0.00,,---,0.00,VWS V14.01,2013-08-05 02:05:00,
2013-08-04 22:10:00,57.1,56.3,30.03,North,352,0.0,0.0,97,0.00,,---,0.00,VWS V14.01,2013-08-05 02:10:00,
2013-08-04 22:15:00,57.1,56.3,30.03,North,352,0.0,0.0,97,0.00,,---,0.00,VWS V14.01,2013-08-05 02:15:00,
2013-08-04 22:20:00,57.1,56.3,30.03,North,352,0.0,0.0,97,0.00,,---,0.00,VWS V14.01,2013-08-05 02:20:00,
2013-08-04 22:25:00,57.0,56.4,30.04,North,352,0.0,1.0,98,0.00,,---,0.00,VWS V14.01,2013-08-05 02:25:00,
2013-08-04 22:30:00,57.1,56.5,30.04,North,352,0.0,0.0,98,0.00,,---,0.00,VWS V14.01,2013-08-05 02:30:00,
2013-08-04 22:35:00,57.1,56.3,30.04,North,352,0.0,0.0,97,0.00,,---,0.00,VWS V14.01,2013-08-05 02:35:00,
2013-08-04 22:40:00,57.1,56.5,30.04,North,352,0.0,0.0,98,0.00,,---,0.00,VWS V14.01,2013-08-05 02:40:00,
2013-08-04 22:45:00,56.9,56.1,30.04,North,353,0.0,0.0,97,0.00,,---,0.00,VWS V14.01,2013-08-05 02:45:00,
2013-08-04 22:50:00,56.7,55.9,30.03,North,353,0.0,0.0,97,0.00,,---,0.00,VWS V14.01,2013-08-05 02:50:00,
2013-08-04 22:55:00,56.6,56.0,30.03,North,353,0.0,0.0,98,0.00,,---,0.00,VWS V14.01,2013-08-05 02:55:00,
2013-08-04 23:00:00,56.7,56.1,30.04,North,352,0.0,0.0,98,0.00,,---,0.00,VWS V14.01,2013-08-05 03:00:00,
2013-08-04 23:05:00,56.8,56.2,30.04,NNW,348,0.0,1.0,98,0.00,,---,0.00,VWS V14.01,2013-08-05 03:05:00,
2013-08-04 23:10:00,56.8,56.2,30.04,NW,315,0.0,1.0,98,0.00,,---,0.00,VWS V14.01,2013-08-05 03:10:00,
2013-08-04 23:15:00,56.7,56.1,30.05,West,281,0.0,1.0,98,0.00,,---,0.00,VWS V14.01,2013-08-05 03:15:00,
2013-08-04 23:20:00,56.8,56.2,30.05,West,278,0.0,1.0,98,0.00,,---,0.00,VWS V14.01,2013-08-05 03:20:00,
2013-08-04 23:25:00,56.9,56.3,30.05,West,278,0.0,1.0,98,0.00,,---,0.00,VWS V14.01,2013-08-05 03:25:00,
2013-08-04 23:30:00,56.8,56.2,30.05,West,278,0.0,0.0,98,0.00,,---,0.00,VWS V14.01,2013-08-05 03:30:00,
2013-08-04 23:35:00,56.6,56.0,30.05,West,278,0.0,0.0,98,0.00,,---,0.00,VWS V14.01,2013-08-05 03:35:00,
2013-08-04 23:40:00,56.3,55.8,30.05,West,278,0.0,0.0,98,0.00,,---,0.00,VWS V14.01,2013-08-05 03:40:00,
2013-08-04 23:45:00,56.1,55.3,30.05,West,278,0.0,0.0,97,0.00,,---,0.00,VWS V14.01,2013-08-05 03:45:00,
2013-08-04 23:50:00,56.0,55.5,30.05,West,278,0.0,0.0,98,0.00,,---,0.00,VWS V14.01,2013-08-05 03:50:00,
2013-08-04 23:55:00,55.9,55.3,30.05,NW,304,0.0,0.0,98,0.00,,---,0.00,VWS V14.01,2013-08-05 03:55:00,